createdAt,value
2018-08-18T00:00:19.299Z,5.27
2018-08-18T00:02:47.895Z,6.37
2018-08-18T00:05:17.019Z,6.63
2018-08-18T00:07:45.616Z,5.90
2018-08-18T00:10:16.149Z,6.20
2018-08-18T00:12:44.723Z,6.07
2018-08-18T00:15:13.237Z,6.10
2018-08-18T00:17:41.791Z,5.73
2018-08-18T00:20:13.533Z,6.27
2018-08-18T00:22:42.447Z,5.80
2018-08-18T00:25:10.987Z,5.83
2018-08-18T00:27:39.545Z,7.40
2018-08-18T00:30:14.921Z,6.63
2018-08-18T00:32:43.819Z,6.33
2018-08-18T00:35:12.304Z,6.53
2018-08-18T00:37:40.838Z,6.10
2018-08-18T00:40:10.559Z,6.30
2018-08-18T00:42:39.466Z,5.97
2018-08-18T00:45:09.713Z,5.83
2018-08-18T00:47:38.504Z,5.27
2018-08-18T00:50:07.645Z,6.13
2018-08-18T00:52:36.206Z,5.93
2018-08-18T00:55:04.883Z,6.07
2018-08-18T00:57:33.710Z,6.20
2018-08-18T01:00:02.255Z,6.10
2018-08-18T01:02:30.774Z,6.30
2018-08-18T01:05:01.571Z,6.00
2018-08-18T01:07:31.027Z,5.80
2018-08-18T01:09:59.993Z,5.57
2018-08-18T01:12:29.005Z,5.60
2018-08-18T01:14:57.842Z,5.70
2018-08-18T01:17:26.583Z,5.40
2018-08-18T01:19:56.734Z,5.70
2018-08-18T01:22:25.329Z,5.57
2018-08-18T01:24:54.206Z,6.07
2018-08-18T01:27:22.969Z,5.87
2018-08-18T01:29:56.745Z,6.17
2018-08-18T01:32:25.353Z,5.77
2018-08-18T01:34:54.596Z,5.63
2018-08-18T01:37:23.105Z,5.77
2018-08-18T01:39:53.769Z,6.77
2018-08-18T01:42:22.541Z,6.30
2018-08-18T01:44:54.050Z,6.40
2018-08-18T01:47:22.603Z,6.40
2018-08-18T01:49:51.219Z,7.57
2018-08-18T01:52:20.767Z,6.70
2018-08-18T01:54:49.276Z,6.57
2018-08-18T01:57:19.035Z,7.27
2018-08-18T01:59:47.877Z,6.83
2018-08-18T02:02:19.035Z,6.30
2018-08-18T02:04:48.026Z,6.60
2018-08-18T02:07:20.090Z,6.40
2018-08-18T02:09:48.649Z,6.13
2018-08-18T02:12:17.232Z,6.30
2018-08-18T02:14:45.805Z,6.10
2018-08-18T02:17:25.754Z,6.37
2018-08-18T02:19:54.591Z,6.57
2018-08-18T02:22:23.767Z,6.17
2018-08-18T02:24:52.289Z,6.20
2018-08-18T02:27:20.862Z,6.70
2018-08-18T02:30:11.949Z,6.20
2018-08-18T02:32:40.464Z,6.83
2018-08-18T02:35:09.257Z,6.43
2018-08-18T02:37:37.854Z,6.60
2018-08-18T02:40:09.707Z,6.47
2018-08-18T02:42:38.210Z,6.40
2018-08-18T02:45:07.841Z,6.60
2018-08-18T02:47:36.386Z,6.77
2018-08-18T02:50:05.901Z,6.30
2018-08-18T02:52:35.763Z,7.07
2018-08-18T02:55:06.938Z,6.50
2018-08-18T02:57:37.593Z,6.60
2018-08-18T03:00:08.166Z,6.27
2018-08-18T03:02:36.696Z,6.50
2018-08-18T03:05:05.626Z,6.60
2018-08-18T03:07:42.264Z,6.70
2018-08-18T03:10:16.092Z,6.40
2018-08-18T03:12:45.402Z,6.57
2018-08-18T03:15:55.254Z,7.00
2018-08-18T03:18:34.969Z,6.70
2018-08-18T03:21:03.885Z,6.70
2018-08-18T03:23:33.381Z,7.00
2018-08-18T03:26:01.977Z,7.40
2018-08-18T03:28:36.929Z,7.20
2018-08-18T03:31:06.026Z,6.90
2018-08-18T03:33:34.577Z,7.50
2018-08-18T03:36:13.165Z,7.20
2018-08-18T03:38:41.654Z,7.43
2018-08-18T03:41:10.175Z,7.40
2018-08-18T03:43:38.689Z,7.50
2018-08-18T03:46:07.219Z,7.20
2018-08-18T03:48:35.745Z,6.90
2018-08-18T03:51:04.266Z,7.40
2018-08-18T03:53:37.624Z,7.37
2018-08-18T03:56:06.230Z,7.40
2018-08-18T03:58:45.801Z,6.97
2018-08-18T04:01:14.289Z,7.87
2018-08-18T04:03:42.903Z,7.20
2018-08-18T04:06:11.385Z,7.20
2018-08-18T04:08:39.878Z,6.97
2018-08-18T04:11:08.383Z,7.70
2018-08-18T04:13:36.913Z,7.10
2018-08-18T04:16:05.394Z,7.43
2018-08-18T04:18:34.221Z,7.90
2018-08-18T04:21:02.713Z,7.37
2018-08-18T04:23:31.246Z,7.40
2018-08-18T04:25:59.733Z,7.37
2018-08-18T04:28:28.294Z,7.53
2018-08-18T04:30:56.808Z,7.40
2018-08-18T04:33:25.345Z,7.43
2018-08-18T04:35:57.948Z,7.40
2018-08-18T04:38:26.513Z,8.37
2018-08-18T04:40:55.057Z,7.90
2018-08-18T04:43:23.590Z,7.73
2018-08-18T04:45:52.873Z,8.03
2018-08-18T04:48:29.621Z,8.37
2018-08-18T04:50:58.143Z,8.00
2018-08-18T04:53:26.669Z,8.50
2018-08-18T04:55:55.934Z,9.03
2018-08-18T04:58:24.553Z,8.80
2018-08-18T05:00:53.130Z,8.80
2018-08-18T05:03:21.691Z,9.33
2018-08-18T05:05:50.267Z,9.57
2018-08-18T05:08:18.773Z,8.90
2018-08-18T05:10:48.077Z,9.00
2018-08-18T05:13:16.705Z,9.43
2018-08-18T05:15:45.289Z,9.43
2018-08-18T05:18:13.789Z,8.60
2018-08-18T05:20:42.314Z,8.90
2018-08-18T05:23:24.630Z,8.70
2018-08-18T05:25:53.887Z,8.00
2018-08-18T05:28:22.374Z,8.83
2018-08-18T05:30:53.784Z,8.23
2018-08-18T05:33:22.283Z,7.90
2018-08-18T05:35:50.801Z,7.90
2018-08-18T05:38:19.287Z,8.10
2018-08-18T05:40:47.774Z,8.53
2018-08-18T05:43:16.250Z,8.20
2018-08-18T05:45:44.836Z,8.20
2018-08-18T05:48:13.329Z,9.50
2018-08-18T05:50:41.906Z,9.63
2018-08-18T05:53:20.492Z,10.30
2018-08-18T05:55:49.605Z,10.20
2018-08-18T05:58:18.126Z,9.90
2018-08-18T06:00:46.814Z,10.77
2018-08-18T06:03:18.885Z,9.77
2018-08-18T06:05:47.514Z,9.60
2018-08-18T06:08:16.013Z,9.73
2018-08-18T06:10:44.553Z,9.83
2018-08-18T06:13:27.454Z,9.30
2018-08-18T06:16:08.921Z,9.57
2018-08-18T06:18:38.809Z,10.40
2018-08-18T06:21:07.868Z,9.87
2018-08-18T06:23:37.459Z,10.00
2018-08-18T06:26:06.325Z,9.40
2018-08-18T06:28:35.053Z,9.63
2018-08-18T06:31:03.878Z,9.70
2018-08-18T06:33:32.984Z,8.97
2018-08-18T06:36:02.156Z,9.87
2018-08-18T06:38:30.646Z,9.60
2018-08-18T06:41:01.569Z,9.37
2018-08-18T06:43:32.241Z,9.27
2018-08-18T06:46:01.242Z,9.20
2018-08-18T06:48:32.824Z,9.40
2018-08-18T06:51:05.537Z,9.20
2018-08-18T06:53:39.844Z,9.30
2018-08-18T06:56:08.649Z,9.47
2018-08-18T06:58:37.497Z,8.60
2018-08-18T07:01:06.736Z,9.20
2018-08-18T07:03:38.343Z,9.77
2018-08-18T07:06:07.943Z,9.30
2018-08-18T07:08:40.991Z,9.30
2018-08-18T07:11:10.164Z,8.67
2018-08-18T07:13:38.833Z,9.30
2018-08-18T07:16:07.693Z,8.97
2018-08-18T07:18:36.875Z,8.87
2018-08-18T07:21:05.414Z,8.17
2018-08-18T07:23:33.869Z,8.80
2018-08-18T07:26:03.152Z,8.60
2018-08-18T07:28:31.667Z,7.50
2018-08-18T07:31:00.232Z,6.60
2018-08-18T07:33:28.717Z,6.85
2018-08-18T07:35:57.264Z,7.10
2018-08-18T07:38:26.269Z,6.45
2018-08-18T07:40:55.495Z,7.08
2018-08-18T07:43:29.063Z,6.50
2018-08-18T07:45:58.975Z,6.58
2018-08-18T07:48:27.523Z,7.37
2018-08-18T07:50:56.094Z,6.90
2018-08-18T07:53:24.620Z,6.80
2018-08-18T07:55:53.134Z,7.28
2018-08-18T07:58:23.008Z,6.75
2018-08-18T08:00:51.608Z,6.12
2018-08-18T08:03:20.769Z,6.97
2018-08-18T08:05:49.344Z,7.30
2018-08-18T08:08:17.797Z,7.03
2018-08-18T08:10:46.273Z,6.62
2018-08-18T08:13:15.406Z,6.30
2018-08-18T08:15:43.934Z,5.60
2018-08-18T08:18:14.077Z,6.17
2018-08-18T08:20:42.617Z,5.70
2018-08-18T08:23:11.222Z,5.90
2018-08-18T08:25:39.733Z,5.35
2018-08-18T08:28:08.350Z,5.10
2018-08-18T08:37:38.285Z,6.15
2018-08-18T08:40:09.401Z,5.42
2018-08-18T08:42:37.946Z,5.55
2018-08-18T08:45:07.863Z,5.17
2018-08-18T08:47:36.366Z,5.10
2018-08-18T08:50:05.994Z,4.72
2018-08-18T08:53:05.196Z,5.55
2018-08-18T08:55:33.705Z,5.40
2018-08-18T08:58:02.237Z,5.10
2018-08-18T09:00:33.178Z,5.58
2018-08-18T09:03:01.705Z,5.92
2018-08-18T09:05:30.198Z,5.30
2018-08-18T09:07:58.973Z,5.35
2018-08-18T09:10:27.507Z,5.03
2018-08-18T09:12:56.050Z,5.53
2018-08-18T09:15:25.631Z,4.75
2018-08-18T09:17:54.149Z,5.60
2018-08-18T09:20:22.865Z,5.37
2018-08-18T09:23:00.398Z,5.00
2018-08-18T09:25:30.573Z,4.92
2018-08-18T09:28:01.389Z,4.42
2018-08-18T09:30:31.122Z,5.70
2018-08-18T09:33:02.666Z,5.30
2018-08-18T09:35:37.596Z,4.47
2018-08-18T09:38:09.165Z,4.75
2018-08-18T09:40:37.648Z,5.12
2018-08-18T09:43:10.317Z,4.50
2018-08-18T09:45:38.813Z,4.58
2018-08-18T09:48:07.558Z,4.92
2018-08-18T09:50:36.039Z,4.60
2018-08-18T09:53:04.630Z,4.47
2018-08-18T09:55:33.153Z,4.35
2018-08-18T09:58:01.706Z,4.58
2018-08-18T10:00:35.403Z,4.20
2018-08-18T10:03:06.925Z,4.20
2018-08-18T10:05:35.418Z,4.70
2018-08-18T10:08:04.035Z,5.00
2018-08-18T10:10:32.654Z,4.83
2018-08-18T10:13:01.182Z,4.95
2018-08-18T10:15:29.796Z,4.55
2018-08-18T10:17:58.315Z,4.70
2018-08-18T10:20:26.873Z,4.95
2018-08-18T10:22:55.357Z,5.00
2018-08-18T10:25:23.882Z,4.53
2018-08-18T10:27:52.374Z,4.97
2018-08-18T10:30:20.898Z,4.78
2018-08-18T10:32:53.706Z,4.60
2018-08-18T10:35:32.649Z,4.60
2018-08-18T10:38:02.659Z,4.90
2018-08-18T10:40:31.258Z,4.40
2018-08-18T10:43:00.434Z,4.12
2018-08-18T10:45:28.986Z,7.45
2018-08-18T10:47:57.507Z,4.70
2018-08-18T10:50:41.795Z,4.47
2018-08-18T10:53:10.431Z,4.58
2018-08-18T10:55:39.069Z,4.47
2018-08-18T10:58:09.697Z,4.85
2018-08-18T11:00:38.511Z,4.30
2018-08-18T11:03:14.673Z,5.05
2018-08-18T11:05:44.026Z,4.40
2018-08-18T11:08:12.908Z,4.10
2018-08-18T11:10:41.973Z,4.08
2018-08-18T11:13:10.698Z,3.87
2018-08-18T11:15:39.340Z,8.43
2018-08-18T11:18:07.931Z,3.90
2018-08-18T11:20:37.201Z,4.40
2018-08-18T11:23:10.837Z,3.98
2018-08-18T11:25:43.533Z,3.77
2018-08-18T11:28:13.056Z,3.80
2018-08-18T11:30:41.778Z,4.00
2018-08-18T11:33:10.450Z,3.58
2018-08-18T11:35:39.321Z,4.03
2018-08-18T11:38:12.140Z,4.20
2018-08-18T11:40:40.701Z,4.12
2018-08-18T11:43:11.419Z,4.00
2018-08-18T11:45:41.259Z,4.25
2018-08-18T11:48:15.389Z,4.20
2018-08-18T11:50:44.514Z,4.08
2018-08-18T11:53:14.129Z,4.00
2018-08-18T11:55:42.862Z,4.30
2018-08-18T11:58:12.958Z,4.12
2018-08-18T12:00:44.160Z,4.33
2018-08-18T12:03:14.013Z,3.62
2018-08-18T12:05:47.821Z,3.75
2018-08-18T12:08:18.450Z,3.85
2018-08-18T12:10:47.929Z,4.00
2018-08-18T12:13:16.399Z,3.90
2018-08-18T12:15:57.326Z,4.10
2018-08-18T12:18:27.705Z,3.83
2018-08-18T12:20:59.501Z,3.90
2018-08-18T12:23:28.304Z,3.85
2018-08-18T12:26:14.495Z,4.03
2018-08-18T12:28:46.970Z,4.22
2018-08-18T12:31:17.288Z,4.53
2018-08-18T12:33:46.893Z,4.80
2018-08-18T12:36:15.527Z,4.33
2018-08-18T12:38:46.225Z,3.55
2018-08-18T12:41:14.850Z,4.00
2018-08-18T12:43:47.565Z,4.15
2018-08-18T12:46:17.631Z,3.80
2018-08-18T12:48:47.321Z,4.00
2018-08-18T12:51:17.110Z,3.62
2018-08-18T12:53:48.409Z,3.85
2018-08-18T12:56:19.642Z,3.75
2018-08-18T12:58:48.277Z,3.55
2018-08-18T13:01:49.403Z,4.08
2018-08-18T13:04:20.076Z,3.95
2018-08-18T13:06:50.102Z,3.70
2018-08-18T13:09:20.062Z,3.90
2018-08-18T13:11:51.455Z,3.72
2018-08-18T13:14:21.824Z,3.67
2018-08-18T13:16:50.602Z,3.70
2018-08-18T13:19:21.258Z,3.80
2018-08-18T13:21:49.888Z,3.62
2018-08-18T13:24:18.438Z,4.00
2018-08-18T13:26:47.060Z,3.70
2018-08-18T13:29:15.592Z,3.77
2018-08-18T13:31:45.239Z,3.70
2018-08-18T13:34:15.000Z,3.12
2018-08-18T13:36:44.321Z,3.62
2018-08-18T13:39:15.478Z,3.55
2018-08-18T13:41:44.774Z,3.55
2018-08-18T13:44:17.926Z,3.37
2018-08-18T13:46:50.594Z,3.37
2018-08-18T13:49:19.873Z,3.60
2018-08-18T13:51:48.425Z,3.70
2018-08-18T13:54:17.206Z,3.47
2018-08-18T13:56:45.726Z,3.30
2018-08-18T13:59:14.402Z,4.00
2018-08-18T14:01:45.126Z,3.35
2018-08-18T14:04:20.124Z,3.62
2018-08-18T14:06:51.674Z,3.25
2018-08-18T14:09:20.278Z,3.45
2018-08-18T14:11:49.154Z,3.25
2018-08-18T14:14:17.681Z,3.20
2018-08-18T14:16:46.214Z,3.27
2018-08-18T14:19:14.762Z,3.65
2018-08-18T14:21:43.284Z,3.50
2018-08-18T14:24:11.862Z,3.33
2018-08-18T14:26:46.229Z,3.20
2018-08-18T14:29:14.806Z,3.33
2018-08-18T14:31:43.334Z,3.12
2018-08-18T14:34:11.933Z,2.70
2018-08-18T14:36:40.322Z,3.25
2018-08-18T14:39:08.905Z,2.80
2018-08-18T14:41:37.862Z,3.30
2018-08-18T14:44:07.017Z,2.95
2018-08-18T14:46:35.752Z,3.20
2018-08-18T14:49:04.166Z,2.90
2018-08-18T14:51:34.626Z,3.30
2018-08-18T14:54:03.182Z,3.27
2018-08-18T14:56:31.623Z,3.00
2018-08-18T14:59:00.099Z,3.00
2018-08-18T15:01:28.557Z,3.20
2018-08-18T15:03:57.110Z,3.25
2018-08-18T15:06:25.594Z,3.20
2018-08-18T15:08:54.147Z,3.00
2018-08-18T15:11:22.545Z,3.10
2018-08-18T15:13:51.037Z,2.80
2018-08-18T15:16:19.480Z,3.10
2018-08-18T15:18:47.988Z,3.02
2018-08-18T15:21:16.498Z,3.33
2018-08-18T15:23:44.972Z,2.87
2018-08-18T15:26:13.443Z,3.10
2018-08-18T15:28:41.957Z,2.77
2018-08-18T15:31:10.461Z,3.67
2018-08-18T15:33:38.953Z,2.70
2018-08-18T15:36:17.277Z,3.10
2018-08-18T15:38:46.405Z,3.20
2018-08-18T15:41:14.881Z,2.90
2018-08-18T15:43:43.531Z,2.87
2018-08-18T15:46:12.082Z,2.87
2018-08-18T15:48:41.738Z,3.10
2018-08-18T15:51:10.579Z,3.20
2018-08-18T15:53:48.686Z,3.10
2018-08-18T15:56:19.152Z,3.30
2018-08-18T15:58:51.118Z,3.45
2018-08-18T16:01:23.239Z,2.92
2018-08-18T16:03:52.193Z,3.02
2018-08-18T16:06:20.733Z,3.15
2018-08-18T16:08:49.308Z,3.25
2018-08-18T16:11:18.124Z,3.20
2018-08-18T16:13:46.771Z,3.37
2018-08-18T16:16:15.620Z,3.35
2018-08-18T16:18:44.486Z,4.50
2018-08-18T16:21:28.450Z,3.87
2018-08-18T16:23:56.958Z,3.75
2018-08-18T16:26:25.495Z,4.33
2018-08-18T16:28:54.504Z,5.40
2018-08-18T16:31:24.887Z,4.30
2018-08-18T16:33:54.001Z,4.20
2018-08-18T16:36:23.527Z,4.10
2018-08-18T16:38:52.050Z,3.90
2018-08-18T16:41:20.590Z,3.85
2018-08-18T16:43:49.129Z,3.98
2018-08-18T16:46:27.476Z,4.08
2018-08-18T16:48:57.365Z,3.70
2018-08-18T16:51:25.921Z,4.42
2018-08-18T16:53:55.096Z,3.90
2018-08-18T16:56:31.034Z,3.80
2018-08-18T16:59:00.759Z,3.85
2018-08-18T17:01:29.249Z,4.05
2018-08-18T17:03:57.737Z,4.00
2018-08-18T17:06:26.314Z,3.70
2018-08-18T17:08:54.766Z,4.28
2018-08-18T17:11:23.313Z,3.80
2018-08-18T17:13:51.814Z,3.80
2018-08-18T17:16:22.090Z,4.12
2018-08-18T17:18:50.645Z,4.03
2018-08-18T17:21:19.187Z,4.20
2018-08-18T17:23:47.677Z,4.22
2018-08-18T17:26:16.167Z,4.10
2018-08-18T17:28:44.702Z,4.13
2018-08-18T17:31:14.366Z,4.23
2018-08-18T17:33:42.847Z,4.00
2018-08-18T17:36:12.811Z,4.10
2018-08-18T17:38:41.351Z,4.57
2018-08-18T17:41:10.369Z,4.20
2018-08-18T17:43:38.904Z,4.40
2018-08-18T17:46:07.494Z,5.05
2018-08-18T17:48:41.662Z,4.40
2018-08-18T17:51:12.758Z,4.40
2018-08-18T17:53:44.896Z,5.30
2018-08-18T17:56:15.465Z,4.07
2018-08-18T17:58:44.014Z,4.30
2018-08-18T18:01:12.571Z,4.40
2018-08-18T18:03:41.662Z,4.70
2018-08-18T18:06:10.606Z,4.40
2018-08-18T18:08:40.195Z,4.60
2018-08-18T18:11:09.155Z,6.10
2018-08-18T18:13:37.775Z,5.83
2018-08-18T18:16:15.114Z,4.73
2018-08-18T18:18:49.425Z,5.07
2018-08-18T18:21:18.138Z,4.57
2018-08-18T18:23:46.682Z,4.17
2018-08-18T18:26:15.219Z,4.30
2018-08-18T18:28:43.836Z,4.97
2018-08-18T18:31:12.962Z,5.00
2018-08-18T18:33:43.064Z,5.40
2018-08-18T18:36:11.776Z,4.70
2018-08-18T18:38:53.058Z,4.13
2018-08-18T18:41:21.533Z,4.67
2018-08-18T18:43:55.739Z,4.67
2018-08-18T18:46:24.245Z,4.70
2018-08-18T18:48:52.779Z,4.50
2018-08-18T18:51:21.325Z,4.33
2018-08-18T18:53:51.306Z,5.20
2018-08-18T18:56:20.071Z,5.73
2018-08-18T18:58:48.693Z,8.23
2018-08-18T19:01:19.165Z,5.40
2018-08-18T19:03:50.471Z,5.57
2018-08-18T19:06:19.001Z,6.30
2018-08-18T19:09:05.345Z,4.83
2018-08-18T19:11:33.998Z,5.73
2018-08-18T19:14:02.558Z,5.90
2018-08-18T19:16:31.105Z,4.63
2018-08-18T19:19:00.989Z,4.50
2018-08-18T19:21:31.887Z,4.90
2018-08-18T19:24:04.112Z,5.23
2018-08-18T19:26:44.640Z,4.63
2018-08-18T19:29:13.213Z,4.37
2018-08-18T19:31:41.678Z,4.50
2018-08-18T19:34:15.439Z,4.80
2018-08-18T19:36:56.657Z,6.40
2018-08-18T19:39:28.142Z,6.50
2018-08-18T19:42:07.630Z,4.47
2018-08-18T19:44:42.290Z,5.00
2018-08-18T19:47:11.076Z,4.43
2018-08-18T19:49:46.950Z,4.80
2018-08-18T19:52:16.681Z,5.00
2018-08-18T19:54:50.225Z,4.90
2018-08-18T19:57:25.830Z,5.70
2018-08-18T19:59:56.277Z,5.30
2018-08-18T20:02:24.903Z,5.70
2018-08-18T20:04:54.490Z,4.97
2018-08-18T20:07:23.018Z,4.90
2018-08-18T20:09:51.590Z,5.10
2018-08-18T20:12:20.155Z,4.63
2018-08-18T20:14:48.710Z,5.13
2018-08-18T20:17:17.218Z,5.00
2018-08-18T20:19:45.925Z,5.17
2018-08-18T20:22:17.092Z,5.00
2018-08-18T20:24:45.820Z,4.73
2018-08-18T20:27:20.663Z,4.90
2018-08-18T20:29:50.353Z,5.07
2018-08-18T20:32:18.950Z,4.87
2018-08-18T20:34:47.630Z,4.73
2018-08-18T20:37:16.121Z,5.47
2018-08-18T20:39:44.750Z,4.97
2018-08-18T20:42:13.293Z,4.90
2018-08-18T20:44:41.910Z,4.90
2018-08-18T20:47:10.428Z,4.47
2018-08-18T20:49:40.999Z,5.40
2018-08-18T20:52:09.545Z,5.07
2018-08-18T20:54:38.070Z,5.00
2018-08-18T20:57:06.607Z,5.93
2018-08-18T20:59:35.166Z,5.43
2018-08-18T21:02:03.694Z,5.80
2018-08-18T21:04:32.462Z,5.30
2018-08-18T21:07:00.986Z,5.27
2018-08-18T21:09:30.822Z,5.43
2018-08-18T21:11:59.390Z,5.27
2018-08-18T21:14:29.179Z,5.10
2018-08-18T21:16:57.923Z,5.20
2018-08-18T21:19:27.367Z,5.43
2018-08-18T21:21:56.735Z,6.30
2018-08-18T21:24:26.394Z,5.93
2018-08-18T21:26:54.939Z,5.70
2018-08-18T21:29:24.567Z,5.73
2018-08-18T21:31:53.164Z,5.27
2018-08-18T21:34:21.839Z,5.47
2018-08-18T21:36:59.633Z,5.60
2018-08-18T21:39:29.574Z,6.20
2018-08-18T21:41:58.163Z,5.67
2018-08-18T21:44:26.967Z,5.40
2018-08-18T21:46:55.601Z,5.80
2018-08-18T21:49:24.623Z,5.60
2018-08-18T21:51:53.277Z,5.60
2018-08-18T21:54:21.864Z,5.13
2018-08-18T21:56:50.444Z,5.40
2018-08-18T21:59:19.023Z,5.90
2018-08-18T22:01:47.709Z,5.93
2018-08-18T22:04:16.447Z,6.10
2018-08-18T22:06:45.098Z,5.90
2018-08-18T22:09:23.333Z,7.47
2018-08-18T22:11:52.074Z,6.60
2018-08-18T22:14:20.674Z,5.83
2018-08-18T22:16:54.593Z,7.30
2018-08-18T22:19:23.293Z,6.00
2018-08-18T22:21:51.935Z,5.70
2018-08-18T22:24:21.237Z,5.67
2018-08-18T22:26:50.034Z,6.40
2018-08-18T22:29:21.601Z,5.53
2018-08-18T22:31:50.228Z,5.70
2018-08-18T22:34:19.409Z,6.03
2018-08-18T22:36:48.230Z,5.83
2018-08-18T22:39:18.180Z,5.90
2018-08-18T22:41:46.835Z,6.20
2018-08-18T22:44:15.454Z,5.93
2018-08-18T22:46:44.127Z,6.13
2018-08-18T22:49:12.694Z,6.00
2018-08-18T22:51:41.302Z,6.70
2018-08-18T22:54:09.849Z,6.60
2018-08-18T22:56:38.962Z,6.77
2018-08-18T22:59:08.663Z,6.90
2018-08-18T23:01:38.584Z,6.60
2018-08-18T23:04:39.065Z,6.53
2018-08-18T23:07:08.528Z,7.10
2018-08-18T23:09:37.051Z,6.70
2018-08-18T23:12:07.010Z,7.50
2018-08-18T23:14:40.362Z,6.90
2018-08-18T23:17:10.498Z,6.80
2018-08-18T23:19:39.104Z,7.20
2018-08-18T23:22:12.033Z,6.90
2018-08-18T23:24:40.570Z,7.97
2018-08-18T23:27:09.086Z,7.57
2018-08-18T23:29:37.683Z,6.97
2018-08-18T23:32:11.879Z,7.50
2018-08-18T23:34:40.390Z,7.80
2018-08-18T23:37:13.057Z,8.23
2018-08-18T23:39:41.600Z,7.63
2018-08-18T23:42:16.865Z,7.70
2018-08-18T23:44:46.737Z,7.20
2018-08-18T23:47:15.363Z,8.00
2018-08-18T23:49:43.973Z,7.50
2018-08-18T23:52:12.602Z,8.40
2018-08-18T23:54:41.111Z,8.20
2018-08-18T23:57:09.762Z,8.17
2018-08-18T23:59:38.338Z,8.50
